createdAt,value
2023-02-12T00:01:29.580Z,24.24
2023-02-12T00:03:58.696Z,24.24
2023-02-12T00:06:27.759Z,24.24
2023-02-12T00:08:57.731Z,24.24
2023-02-12T00:11:28.915Z,24.25
2023-02-12T00:13:58.568Z,24.25
2023-02-12T00:16:29.689Z,24.26
2023-02-12T00:19:00.242Z,24.27
2023-02-12T00:21:30.608Z,24.30
2023-02-12T00:23:59.654Z,24.31
2023-02-12T00:26:27.944Z,24.34
2023-02-12T00:28:56.848Z,24.37
2023-02-12T00:31:28.460Z,24.40
2023-02-12T00:33:57.245Z,24.44
2023-02-12T00:36:27.646Z,24.47
2023-02-12T00:38:57.950Z,24.52
2023-02-12T00:41:27.374Z,24.55
2023-02-12T00:43:55.794Z,24.60
2023-02-12T00:46:24.676Z,24.67
2023-02-12T00:48:53.153Z,24.71
2023-02-12T00:51:21.629Z,24.76
2023-02-12T00:53:49.960Z,24.83
2023-02-12T00:56:18.258Z,24.87
2023-02-12T00:58:46.584Z,24.93
2023-02-12T01:01:15.170Z,25.00
2023-02-12T01:03:43.604Z,25.07
2023-02-12T01:06:11.968Z,25.13
2023-02-12T01:08:40.300Z,25.21
2023-02-12T01:11:08.826Z,25.29
2023-02-12T01:13:37.300Z,25.34
2023-02-12T01:16:17.965Z,25.43
2023-02-12T01:18:47.253Z,25.51
2023-02-12T01:21:21.385Z,25.58
2023-02-12T01:23:50.489Z,25.67
2023-02-12T01:26:20.543Z,25.73
2023-02-12T01:28:54.645Z,25.82
2023-02-12T01:31:25.661Z,25.89
2023-02-12T01:33:56.897Z,25.97
2023-02-12T01:36:25.823Z,26.04
2023-02-12T01:38:54.138Z,26.10
2023-02-12T01:41:25.820Z,26.17
2023-02-12T01:44:15.151Z,26.27
2023-02-12T01:46:44.960Z,26.34
2023-02-12T01:49:21.779Z,26.42
2023-02-12T01:51:55.479Z,26.48
2023-02-12T01:54:26.849Z,26.57
2023-02-12T01:56:56.107Z,26.64
2023-02-12T01:59:26.011Z,26.72
2023-02-12T02:01:56.138Z,26.80
2023-02-12T02:04:33.781Z,26.87
2023-02-12T02:07:05.561Z,26.96
2023-02-12T02:09:37.795Z,27.05
2023-02-12T02:12:25.457Z,27.13
2023-02-12T02:14:57.617Z,27.23
2023-02-12T02:17:43.952Z,27.31
2023-02-12T02:20:18.521Z,27.40
2023-02-12T02:22:55.794Z,27.49
2023-02-12T02:26:01.066Z,27.58
2023-02-12T02:28:41.164Z,27.64
2023-02-12T02:31:48.245Z,27.75
2023-02-12T02:34:16.511Z,27.82
2023-02-12T02:37:18.587Z,27.92
2023-02-12T02:39:57.096Z,27.99
2023-02-12T02:42:34.227Z,28.07
2023-02-12T02:45:13.745Z,28.15
2023-02-12T02:47:50.893Z,28.24
2023-02-12T02:50:24.186Z,28.32
2023-02-12T02:53:20.774Z,28.41
2023-02-12T02:55:54.810Z,28.50
2023-02-12T02:58:46.478Z,28.61
2023-02-12T03:01:24.397Z,28.69
2023-02-12T03:04:03.805Z,28.78
2023-02-12T03:06:46.072Z,28.86
2023-02-12T03:09:29.647Z,28.95
2023-02-12T03:12:04.809Z,29.02
2023-02-12T03:14:41.259Z,29.08
2023-02-12T03:17:19.708Z,29.14
2023-02-12T03:20:08.523Z,29.22
2023-02-12T03:22:42.055Z,29.30
2023-02-12T03:25:17.882Z,29.39
2023-02-12T03:27:54.267Z,29.46
2023-02-12T03:30:23.862Z,29.54
2023-02-12T03:33:24.143Z,29.62
2023-02-12T03:36:09.122Z,29.70
2023-02-12T03:38:37.368Z,29.75
2023-02-12T03:41:22.041Z,29.82
2023-02-12T03:44:14.529Z,29.90
2023-02-12T03:47:05.269Z,29.96
2023-02-12T03:49:59.303Z,30.06
2023-02-12T03:52:28.275Z,30.13
2023-02-12T03:54:56.718Z,30.21
2023-02-12T03:57:32.298Z,30.27
2023-02-12T04:00:03.258Z,30.34
2023-02-12T04:02:31.855Z,30.39
2023-02-12T04:05:05.435Z,30.47
2023-02-12T04:07:34.987Z,30.54
2023-02-12T04:10:03.748Z,30.60
2023-02-12T04:12:41.184Z,30.67
2023-02-12T04:15:18.556Z,30.74
2023-02-12T04:18:10.847Z,30.85
2023-02-12T04:20:51.034Z,30.90
2023-02-12T04:23:36.509Z,30.97
2023-02-12T04:26:30.871Z,31.06
2023-02-12T04:29:27.543Z,31.14
2023-02-12T04:32:01.964Z,31.18
2023-02-12T04:34:48.846Z,31.26
2023-02-12T04:37:19.393Z,31.32
2023-02-12T04:39:49.681Z,31.39
2023-02-12T04:42:18.061Z,31.47
2023-02-12T04:44:46.978Z,31.54
2023-02-12T04:47:17.129Z,31.59
2023-02-12T04:49:45.663Z,31.65
2023-02-12T04:52:14.010Z,31.73
2023-02-12T04:54:42.324Z,31.82
2023-02-12T04:57:11.110Z,31.90
2023-02-12T04:59:39.382Z,31.98
2023-02-12T05:02:07.821Z,32.06
2023-02-12T05:04:36.151Z,32.15
2023-02-12T05:07:04.428Z,32.22
2023-02-12T05:09:32.718Z,32.32
2023-02-12T05:12:01.034Z,32.40
2023-02-12T05:14:29.446Z,32.50
2023-02-12T05:16:57.861Z,32.57
2023-02-12T05:19:26.464Z,32.68
2023-02-12T05:21:54.757Z,32.75
2023-02-12T05:24:23.181Z,32.80
2023-02-12T05:26:52.809Z,32.82
2023-02-12T05:29:21.190Z,32.83
2023-02-12T05:31:49.579Z,32.88
2023-02-12T05:34:17.900Z,32.93
2023-02-12T05:36:46.220Z,32.98
2023-02-12T05:39:14.535Z,33.05
2023-02-12T05:41:42.816Z,33.08
2023-02-12T05:44:12.960Z,33.09
2023-02-12T05:46:41.335Z,33.15
2023-02-12T05:49:11.018Z,33.21
2023-02-12T05:51:39.492Z,33.28
2023-02-12T05:54:08.666Z,33.26
2023-02-12T05:56:43.034Z,33.23
2023-02-12T05:59:17.480Z,33.23
2023-02-12T06:01:47.320Z,33.22
2023-02-12T06:04:19.242Z,33.20
2023-02-12T06:06:47.785Z,33.21
2023-02-12T06:09:16.271Z,33.23
2023-02-12T06:11:45.062Z,33.23
2023-02-12T06:14:17.644Z,33.22
2023-02-12T06:16:48.126Z,33.16
2023-02-12T06:19:16.660Z,33.09
2023-02-12T06:21:45.045Z,33.07
2023-02-12T06:24:17.745Z,33.02
2023-02-12T06:26:47.211Z,32.98
2023-02-12T06:29:15.568Z,32.93
2023-02-12T06:31:44.435Z,32.92
2023-02-12T06:34:14.800Z,32.90
2023-02-12T06:36:48.455Z,32.88
2023-02-12T06:39:18.099Z,32.89
2023-02-12T06:41:46.661Z,32.93
2023-02-12T06:44:15.138Z,33.02
2023-02-12T06:46:43.629Z,33.10
2023-02-12T06:49:15.205Z,33.22
2023-02-12T06:51:43.723Z,33.34
2023-02-12T06:54:16.936Z,33.45
2023-02-12T06:56:46.143Z,33.54
2023-02-12T06:59:16.857Z,33.63
2023-02-12T07:01:45.276Z,33.75
2023-02-12T07:04:13.936Z,33.83
2023-02-12T07:06:42.537Z,33.92
2023-02-12T07:09:11.254Z,33.99
2023-02-12T07:11:39.854Z,34.05
2023-02-12T07:14:08.870Z,34.09
2023-02-12T07:16:37.262Z,34.12
2023-02-12T07:19:05.609Z,34.15
2023-02-12T07:21:34.474Z,34.16
2023-02-12T07:24:02.809Z,34.19
2023-02-12T07:26:31.164Z,34.18
2023-02-12T07:29:00.190Z,34.16
2023-02-12T07:31:28.575Z,34.12
2023-02-12T07:33:58.677Z,34.09
2023-02-12T07:36:31.144Z,34.08
2023-02-12T07:39:00.019Z,34.03
2023-02-12T07:41:31.106Z,33.98
2023-02-12T07:44:01.849Z,33.97
2023-02-12T07:46:36.106Z,33.98
2023-02-12T07:49:07.087Z,34.00
2023-02-12T07:51:36.706Z,34.01
2023-02-12T07:54:05.575Z,34.02
2023-02-12T07:56:36.373Z,34.04
2023-02-12T07:59:13.523Z,34.08
2023-02-12T08:01:48.745Z,34.10
2023-02-12T08:04:20.259Z,34.10
2023-02-12T08:06:50.807Z,34.13
2023-02-12T08:09:25.097Z,34.14
2023-02-12T08:11:54.305Z,34.14
2023-02-12T08:14:23.681Z,34.14
2023-02-12T08:16:52.948Z,34.17
2023-02-12T08:19:25.794Z,34.18
2023-02-12T08:21:56.396Z,34.18
2023-02-12T08:24:25.935Z,34.19
2023-02-12T08:26:54.409Z,34.19
2023-02-12T08:29:26.182Z,34.17
2023-02-12T08:32:00.030Z,34.18
2023-02-12T08:34:33.350Z,34.13
2023-02-12T08:37:02.533Z,34.13
2023-02-12T08:39:31.572Z,34.12
2023-02-12T08:42:02.209Z,34.10
2023-02-12T08:44:31.060Z,34.07
2023-02-12T08:46:59.601Z,34.03
2023-02-12T08:49:30.632Z,33.99
2023-02-12T08:52:00.825Z,33.97
2023-02-12T08:54:31.497Z,33.92
2023-02-12T08:57:02.433Z,33.87
2023-02-12T08:59:31.753Z,33.84
2023-02-12T09:02:00.446Z,33.80
2023-02-12T09:04:30.407Z,33.77
2023-02-12T09:06:59.048Z,33.76
2023-02-12T09:09:27.367Z,33.75
2023-02-12T09:11:55.670Z,33.74
2023-02-12T09:14:26.757Z,33.72
2023-02-12T09:16:56.044Z,33.73
2023-02-12T09:19:24.847Z,33.74
2023-02-12T09:21:57.160Z,33.74
2023-02-12T09:24:28.468Z,33.71
2023-02-12T09:26:57.180Z,33.72
2023-02-12T09:29:25.773Z,33.71
2023-02-12T09:31:54.361Z,33.69
2023-02-12T09:34:22.891Z,33.67
2023-02-12T09:36:51.219Z,33.66
2023-02-12T09:39:19.570Z,33.64
2023-02-12T09:42:02.349Z,33.60
2023-02-12T09:44:36.383Z,33.56
2023-02-12T09:47:14.938Z,33.55
2023-02-12T09:49:58.419Z,33.52
2023-02-12T09:52:29.358Z,33.49
2023-02-12T09:54:58.129Z,33.44
2023-02-12T09:57:37.118Z,33.40
2023-02-12T10:00:07.715Z,33.35
2023-02-12T10:02:41.405Z,33.31
2023-02-12T10:05:31.172Z,33.26
2023-02-12T10:08:25.309Z,33.21
2023-02-12T10:10:54.863Z,33.14
2023-02-12T10:13:32.857Z,33.07
2023-02-12T10:16:39.412Z,33.00
2023-02-12T10:19:13.944Z,32.94
2023-02-12T10:21:49.386Z,32.87
2023-02-12T10:24:17.657Z,32.79
2023-02-12T10:26:50.550Z,32.73
2023-02-12T10:29:28.490Z,32.66
2023-02-12T10:32:03.064Z,32.56
2023-02-12T10:34:37.116Z,32.48
2023-02-12T10:37:34.837Z,32.42
2023-02-12T10:40:18.900Z,32.34
2023-02-12T10:42:50.793Z,32.25
2023-02-12T10:45:23.737Z,32.16
2023-02-12T10:47:55.794Z,32.08
2023-02-12T10:50:59.470Z,31.97
2023-02-12T10:53:35.277Z,31.90
2023-02-12T10:56:20.280Z,31.81
2023-02-12T10:58:51.834Z,31.73
2023-02-12T11:01:26.892Z,31.65
2023-02-12T11:04:00.058Z,31.57
2023-02-12T11:06:34.454Z,31.46
2023-02-12T11:09:02.856Z,31.39
2023-02-12T11:11:33.000Z,31.31
2023-02-12T11:14:22.512Z,31.24
2023-02-12T11:16:56.569Z,31.14
2023-02-12T11:19:35.939Z,31.08
2023-02-12T11:22:19.779Z,30.99
2023-02-12T11:25:00.593Z,30.91
2023-02-12T11:27:31.990Z,30.85
2023-02-12T11:30:17.333Z,30.77
2023-02-12T11:32:45.936Z,30.69
2023-02-12T11:35:19.230Z,30.62
2023-02-12T11:37:48.622Z,30.55
2023-02-12T11:40:29.961Z,30.47
2023-02-12T11:43:10.461Z,30.39
2023-02-12T11:45:45.939Z,30.33
2023-02-12T11:48:48.271Z,30.26
2023-02-12T11:51:33.063Z,30.20
2023-02-12T11:54:07.185Z,30.12
2023-02-12T11:56:45.184Z,30.05
2023-02-12T11:59:42.701Z,30.00
2023-02-12T12:02:27.298Z,29.90
2023-02-12T12:05:04.397Z,29.83
2023-02-12T12:07:38.722Z,29.77
2023-02-12T12:10:42.202Z,29.69
2023-02-12T12:13:35.078Z,29.60
2023-02-12T12:16:33.404Z,29.50
2023-02-12T12:19:41.360Z,29.42
2023-02-12T12:22:37.725Z,29.34
2023-02-12T12:25:36.189Z,29.26
2023-02-12T12:28:23.093Z,29.18
2023-02-12T12:31:09.513Z,29.10
2023-02-12T12:33:43.590Z,29.05
2023-02-12T12:36:14.865Z,28.98
2023-02-12T12:39:18.286Z,28.92
2023-02-12T12:42:23.716Z,28.86
2023-02-12T12:45:16.781Z,28.81
2023-02-12T12:48:07.193Z,28.74
2023-02-12T12:51:05.819Z,28.70
2023-02-12T12:53:58.718Z,28.63
2023-02-12T12:56:35.678Z,28.58
2023-02-12T13:00:01.744Z,28.52
2023-02-12T13:02:44.786Z,28.47
2023-02-12T13:05:52.603Z,28.43
2023-02-12T13:08:39.177Z,28.39
2023-02-12T13:11:30.722Z,28.36
2023-02-12T13:14:13.760Z,28.33
2023-02-12T13:16:50.533Z,28.29
2023-02-12T13:19:48.385Z,28.26
2023-02-12T13:22:32.028Z,28.22
2023-02-12T13:25:28.279Z,28.17
2023-02-12T13:27:59.524Z,28.11
2023-02-12T13:30:40.816Z,28.06
2023-02-12T13:33:18.074Z,27.99
2023-02-12T13:35:51.016Z,27.94
2023-02-12T13:38:26.904Z,27.92
2023-02-12T13:41:01.431Z,27.89
2023-02-12T13:43:32.419Z,27.85
2023-02-12T13:46:30.313Z,27.80
2023-02-12T13:49:13.556Z,27.76
2023-02-12T13:51:57.870Z,27.73
2023-02-12T13:54:58.277Z,27.70
2023-02-12T13:57:26.720Z,27.67
2023-02-12T13:59:56.951Z,27.63
2023-02-12T14:02:30.611Z,27.61
2023-02-12T14:05:01.864Z,27.58
2023-02-12T14:07:57.638Z,27.53
2023-02-12T14:10:31.151Z,27.49
2023-02-12T14:13:24.357Z,27.46
2023-02-12T14:15:59.564Z,27.41
2023-02-12T14:18:35.717Z,27.37
2023-02-12T14:21:13.214Z,27.34
2023-02-12T14:23:43.491Z,27.30
2023-02-12T14:26:25.658Z,27.27
2023-02-12T14:29:08.103Z,27.26
2023-02-12T14:31:39.062Z,27.24
2023-02-12T14:34:07.478Z,27.23
2023-02-12T14:36:43.665Z,27.18
2023-02-12T14:39:30.352Z,27.15
2023-02-12T14:42:38.528Z,27.13
2023-02-12T14:45:07.033Z,27.10
2023-02-12T14:47:35.276Z,27.09
2023-02-12T14:50:13.908Z,27.09
2023-02-12T14:52:49.888Z,27.10
2023-02-12T14:55:29.456Z,27.09
2023-02-12T14:58:04.642Z,27.09
2023-02-12T15:00:40.715Z,27.07
2023-02-12T15:03:15.316Z,27.05
2023-02-12T15:06:05.415Z,27.02
2023-02-12T15:08:46.094Z,26.99
2023-02-12T15:11:35.198Z,26.95
2023-02-12T15:14:29.369Z,26.93
2023-02-12T15:17:03.820Z,26.90
2023-02-12T15:19:44.348Z,26.88
2023-02-12T15:22:31.117Z,26.86
2023-02-12T15:25:18.288Z,26.83
2023-02-12T15:27:49.795Z,26.78
2023-02-12T15:30:25.904Z,26.74
2023-02-12T15:32:57.998Z,26.68
2023-02-12T15:35:32.372Z,26.63
2023-02-12T15:38:02.182Z,26.59
2023-02-12T15:40:32.741Z,26.55
2023-02-12T15:43:07.286Z,26.52
2023-02-12T15:45:37.804Z,26.48
2023-02-12T15:48:19.263Z,26.44
2023-02-12T15:50:52.888Z,26.41
2023-02-12T15:53:23.455Z,26.38
2023-02-12T15:55:53.070Z,26.38
2023-02-12T15:58:53.381Z,26.36
2023-02-12T16:01:28.233Z,26.36
2023-02-12T16:04:08.755Z,26.36
2023-02-12T16:06:38.006Z,26.34
2023-02-12T16:09:15.668Z,26.33
2023-02-12T16:11:47.185Z,26.31
2023-02-12T16:14:55.624Z,26.29
2023-02-12T16:17:39.135Z,26.25
2023-02-12T16:20:10.536Z,26.22
2023-02-12T16:22:42.249Z,26.19
2023-02-12T16:25:32.742Z,26.16
2023-02-12T16:28:07.954Z,26.13
2023-02-12T16:30:43.713Z,26.12
2023-02-12T16:33:46.328Z,26.10
2023-02-12T16:36:26.534Z,26.08
2023-02-12T16:39:06.873Z,26.05
2023-02-12T16:41:57.013Z,26.04
2023-02-12T16:44:32.368Z,26.02
2023-02-12T16:47:02.770Z,25.99
2023-02-12T16:49:31.197Z,25.98
2023-02-12T16:52:39.197Z,25.97
2023-02-12T16:55:18.998Z,25.95
2023-02-12T16:57:47.680Z,25.92
2023-02-12T17:00:18.652Z,25.88
2023-02-12T17:02:48.237Z,25.85
2023-02-12T17:05:19.334Z,25.83
2023-02-12T17:07:47.665Z,25.79
2023-02-12T17:10:18.350Z,25.76
2023-02-12T17:12:52.528Z,25.73
2023-02-12T17:15:33.890Z,25.71
2023-02-12T17:18:02.262Z,25.70
2023-02-12T17:20:30.585Z,25.67
2023-02-12T17:23:00.389Z,25.65
2023-02-12T17:25:31.054Z,25.62
2023-02-12T17:27:59.683Z,25.61
2023-02-12T17:30:29.853Z,25.57
2023-02-12T17:32:58.204Z,25.54
2023-02-12T17:35:26.548Z,25.51
2023-02-12T17:37:54.904Z,25.48
2023-02-12T17:40:23.327Z,25.44
2023-02-12T17:42:51.662Z,25.40
2023-02-12T17:45:20.108Z,25.37
2023-02-12T17:47:48.459Z,25.35
2023-02-12T17:50:19.416Z,25.32
2023-02-12T17:52:48.115Z,25.29
2023-02-12T17:55:18.351Z,25.25
2023-02-12T17:57:46.683Z,25.23
2023-02-12T18:00:15.845Z,25.21
2023-02-12T18:02:44.215Z,25.21
2023-02-12T18:05:12.556Z,25.18
2023-02-12T18:07:40.952Z,25.17
2023-02-12T18:10:11.571Z,25.15
2023-02-12T18:12:40.296Z,25.12
2023-02-12T18:15:10.231Z,25.10
2023-02-12T18:17:38.797Z,25.07
2023-02-12T18:20:07.957Z,25.04
2023-02-12T18:22:36.340Z,25.02
2023-02-12T18:25:04.988Z,25.02
2023-02-12T18:27:33.339Z,25.00
2023-02-12T18:30:01.722Z,24.99
2023-02-12T18:32:30.080Z,24.97
2023-02-12T18:34:58.423Z,24.98
2023-02-12T18:37:26.784Z,24.96
2023-02-12T18:39:55.159Z,24.96
2023-02-12T18:42:23.533Z,24.97
2023-02-12T18:44:55.550Z,24.96
2023-02-12T18:47:23.941Z,24.94
2023-02-12T18:49:52.281Z,24.93
2023-02-12T18:52:20.651Z,24.92
2023-02-12T18:54:49.190Z,24.91
2023-02-12T18:57:17.524Z,24.90
2023-02-12T18:59:45.861Z,24.90
2023-02-12T19:02:15.123Z,24.91
2023-02-12T19:04:43.720Z,24.89
2023-02-12T19:07:12.150Z,24.87
2023-02-12T19:09:40.621Z,24.86
2023-02-12T19:12:09.915Z,24.84
2023-02-12T19:14:38.208Z,24.83
2023-02-12T19:17:06.501Z,24.81
2023-02-12T19:19:34.832Z,24.80
2023-02-12T19:22:03.685Z,24.80
2023-02-12T19:24:45.972Z,24.77
2023-02-12T19:27:15.255Z,24.77
2023-02-12T19:29:44.343Z,24.76
2023-02-12T19:32:12.716Z,24.76
2023-02-12T19:34:42.162Z,24.75
2023-02-12T19:37:11.832Z,24.73
2023-02-12T19:39:40.155Z,24.70
2023-02-12T19:42:08.469Z,24.68
2023-02-12T19:44:37.620Z,24.64
2023-02-12T19:47:06.185Z,24.62
2023-02-12T19:49:34.522Z,24.60
2023-02-12T19:52:02.853Z,24.59
2023-02-12T19:54:31.180Z,24.58
2023-02-12T19:56:59.474Z,24.57
2023-02-12T19:59:28.447Z,24.57
2023-02-12T20:01:57.484Z,24.55
2023-02-12T20:04:26.546Z,24.55
2023-02-12T20:06:55.046Z,24.54
2023-02-12T20:09:23.964Z,24.54
2023-02-12T20:11:52.989Z,24.54
2023-02-12T20:14:23.515Z,24.54
2023-02-12T20:16:54.657Z,24.51
2023-02-12T20:19:33.204Z,24.49
2023-02-12T20:22:02.554Z,24.48
2023-02-12T20:24:33.801Z,24.46
2023-02-12T20:27:03.450Z,24.43
2023-02-12T20:29:32.065Z,24.41
2023-02-12T20:32:00.421Z,24.40
2023-02-12T20:34:29.016Z,24.39
2023-02-12T20:36:57.876Z,24.39
2023-02-12T20:39:26.262Z,24.36
2023-02-12T20:41:54.595Z,24.34
2023-02-12T20:44:23.574Z,24.34
2023-02-12T20:46:56.422Z,24.33
2023-02-12T20:49:26.421Z,24.32
2023-02-12T20:51:54.911Z,24.29
2023-02-12T20:56:52.042Z,24.26
2023-02-12T20:59:21.183Z,24.24
2023-02-12T21:01:50.041Z,24.24
2023-02-12T21:04:20.643Z,24.21
2023-02-12T21:06:49.656Z,24.20
2023-02-12T21:09:19.576Z,24.19
2023-02-12T21:11:48.405Z,24.18
2023-02-12T21:14:25.079Z,24.17
2023-02-12T21:16:56.060Z,24.15
2023-02-12T21:19:24.968Z,24.13
2023-02-12T21:21:53.392Z,24.10
2023-02-12T21:24:24.968Z,24.07
2023-02-12T21:26:55.013Z,24.07
2023-02-12T21:29:24.270Z,24.05
2023-02-12T21:31:52.962Z,24.04
2023-02-12T21:34:24.421Z,24.03
2023-02-12T21:36:55.559Z,24.02
2023-02-12T21:39:28.273Z,24.02
2023-02-12T21:42:03.731Z,24.02
2023-02-12T21:44:36.471Z,24.03
2023-02-12T21:47:05.098Z,24.02
2023-02-12T21:49:33.483Z,24.02
2023-02-12T21:52:04.660Z,24.01
2023-02-12T21:54:33.529Z,23.99
2023-02-12T21:57:02.341Z,23.98
2023-02-12T21:59:32.322Z,23.97
2023-02-12T22:02:02.711Z,23.96
2023-02-12T22:04:31.072Z,23.96
2023-02-12T22:07:03.903Z,23.95
2023-02-12T22:09:32.679Z,23.94
2023-02-12T22:12:01.029Z,23.94
2023-02-12T22:14:29.416Z,23.94
2023-02-12T22:16:57.760Z,23.94
2023-02-12T22:19:26.049Z,23.93
2023-02-12T22:21:54.397Z,23.93
2023-02-12T22:24:23.080Z,23.92
2023-02-12T22:26:51.522Z,23.91
2023-02-12T22:29:20.794Z,23.91
2023-02-12T22:31:50.509Z,23.90
2023-02-12T22:34:20.042Z,23.89
2023-02-12T22:36:48.949Z,23.90
2023-02-12T22:39:18.535Z,23.90
2023-02-12T22:41:47.532Z,23.90
2023-02-12T22:44:18.382Z,23.90
2023-02-12T22:46:48.747Z,23.89
2023-02-12T22:49:18.019Z,23.88
2023-02-12T22:51:46.425Z,23.88
2023-02-12T22:54:19.570Z,23.88
2023-02-12T22:56:51.707Z,23.85
2023-02-12T22:59:20.383Z,23.85
2023-02-12T23:01:48.696Z,23.83
2023-02-12T23:04:19.126Z,23.82
2023-02-12T23:06:48.200Z,23.82
2023-02-12T23:09:19.862Z,23.79
2023-02-12T23:11:49.263Z,23.78
2023-02-12T23:14:18.053Z,23.77
2023-02-12T23:16:47.074Z,23.75
2023-02-12T23:19:15.963Z,23.73
2023-02-12T23:21:44.447Z,23.70
2023-02-12T23:24:16.323Z,23.70
2023-02-12T23:26:44.949Z,23.68
2023-02-12T23:29:13.744Z,23.67
2023-02-12T23:31:42.188Z,23.65
2023-02-12T23:34:10.666Z,23.67
2023-02-12T23:36:38.952Z,23.65
2023-02-12T23:39:07.319Z,23.64
2023-02-12T23:41:35.626Z,23.62
2023-02-12T23:44:04.613Z,23.61
2023-02-12T23:46:33.324Z,23.62
2023-02-12T23:49:01.810Z,23.60
2023-02-12T23:51:30.395Z,23.61
2023-02-12T23:53:58.842Z,23.62
2023-02-12T23:56:27.252Z,23.61
2023-02-12T23:58:58.404Z,23.62
